Time;durP1;ratioP1;P1;durP2;ratioP2;P2;SDS_P1;SDS_P2;PMS_P1;PMS_P2;Temp;Humidity;BMP_temperature;BMP_pressure;BME280_temperature;BME280_humidity;BME280_pressure;Samples;Min_cycle;Max_cycle;Signal;HPM_P1;HPM_P2
2021/10/26 00:02:21;;;;;;;11.53;6.97;;;3.70;99.90;;;;;;5031285;28;20459;-74
2021/10/26 00:04:47;;;;;;;9.37;6.73;;;3.70;99.90;;;;;;5030995;28;20022;-73
2021/10/26 00:07:13;;;;;;;8.63;6.20;;;3.80;99.90;;;;;;5031138;28;20021;-74
2021/10/26 00:09:38;;;;;;;8.87;6.43;;;3.70;99.90;;;;;;5031145;28;20026;-74
2021/10/26 00:12:05;;;;;;;13.33;6.63;;;3.70;99.90;;;;;;5013333;28;20110;-74
2021/10/26 00:14:30;;;;;;;11.93;7.07;;;3.80;99.90;;;;;;5031265;28;20025;-74
2021/10/26 00:16:56;;;;;;;12.50;6.63;;;3.80;99.90;;;;;;5031004;28;20029;-73
2021/10/26 00:19:22;;;;;;;16.77;6.97;;;3.70;99.90;;;;;;5030934;28;20478;-74
2021/10/26 00:21:48;;;;;;;10.17;6.47;;;3.70;99.90;;;;;;5030881;28;20030;-73
2021/10/26 00:24:14;;;;;;;11.40;6.90;;;3.70;99.90;;;;;;5030752;28;20032;-74
2021/10/26 00:26:39;;;;;;;9.10;6.07;;;3.70;99.90;;;;;;5030952;28;20360;-73
2021/10/26 00:29:05;;;;;;;9.60;6.80;;;3.70;99.90;;;;;;5030646;28;20033;-74
2021/10/26 00:31:32;;;;;;;10.47;6.73;;;3.80;99.90;;;;;;5030806;28;20029;-74
2021/10/26 00:33:57;;;;;;;9.60;6.60;;;3.70;99.90;;;;;;5030986;28;20100;-74
2021/10/26 00:36:24;;;;;;;9.37;6.53;;;3.70;99.90;;;;;;5030447;28;20126;-73
2021/10/26 00:38:50;;;;;;;10.27;6.30;;;3.80;99.90;;;;;;5030853;28;20025;-74
2021/10/26 00:41:16;;;;;;;11.17;7.20;;;3.70;99.90;;;;;;5030251;28;20422;-74
2021/10/26 00:43:42;;;;;;;9.17;6.60;;;3.70;99.90;;;;;;5030742;28;20057;-74
2021/10/26 00:46:08;;;;;;;10.07;6.57;;;3.70;99.90;;;;;;5030506;28;20068;-73
2021/10/26 00:48:34;;;;;;;10.33;7.03;;;3.70;99.90;;;;;;5030446;28;20029;-74
2021/10/26 00:50:59;;;;;;;9.57;6.73;;;3.70;99.90;;;;;;5030586;28;20379;-74
2021/10/26 00:53:25;;;;;;;11.67;7.33;;;3.60;99.90;;;;;;5030467;28;20097;-73
2021/10/26 00:55:51;;;;;;;9.53;6.73;;;3.60;99.90;;;;;;5030441;28;20761;-73
2021/10/26 00:58:18;;;;;;;10.27;7.03;;;3.60;99.90;;;;;;5030691;28;20133;-73
2021/10/26 01:00:45;;;;;;;9.67;7.20;;;3.60;99.90;;;;;;5030368;28;20072;-73
2021/10/26 01:03:11;;;;;;;14.43;8.17;;;3.60;99.90;;;;;;5030258;28;20027;-73
2021/10/26 01:05:37;;;;;;;12.53;7.97;;;3.60;99.90;;;;;;5030565;28;20150;-73
2021/10/26 01:08:03;;;;;;;11.30;8.00;;;3.60;99.90;;;;;;5012288;28;20097;-74
2021/10/26 01:10:29;;;;;;;12.73;8.00;;;3.60;99.90;;;;;;5030209;28;20057;-73
2021/10/26 01:12:55;;;;;;;12.00;8.50;;;3.60;99.90;;;;;;5030268;28;20514;-73
2021/10/26 01:15:21;;;;;;;10.97;8.07;;;3.50;99.90;;;;;;5029834;28;20025;-73
2021/10/26 01:17:47;;;;;;;11.10;7.83;;;3.50;99.90;;;;;;5029610;28;20037;-73
2021/10/26 01:20:13;;;;;;;13.53;8.83;;;3.50;99.90;;;;;;5030329;28;20428;-74
2021/10/26 01:22:39;;;;;;;11.47;8.00;;;3.50;99.90;;;;;;5030255;28;20100;-73
2021/10/26 01:25:14;;;;;;;13.73;7.83;;;3.50;99.90;;;;;;5030034;28;20021;-74
2021/10/26 01:27:48;;;;;;;12.82;8.50;;;3.50;99.90;;;;;;5030333;28;20788;-73
2021/10/26 01:30:15;;;;;;;11.10;8.00;;;3.50;99.90;;;;;;5012289;28;20540;-74
2021/10/26 01:32:41;;;;;;;11.67;7.40;;;3.50;99.90;;;;;;5030227;28;20037;-74
2021/10/26 01:35:07;;;;;;;10.60;7.80;;;3.50;99.90;;;;;;5032488;28;20052;-73
2021/10/26 01:37:33;;;;;;;10.90;8.10;;;3.40;99.90;;;;;;5033901;28;20033;-74
2021/10/26 01:40:00;;;;;;;11.33;7.80;;;3.40;99.90;;;;;;5034394;28;20103;-73
2021/10/26 01:42:26;;;;;;;11.63;8.20;;;3.40;99.90;;;;;;5015934;28;20394;-73
2021/10/26 01:44:52;;;;;;;11.43;7.73;;;3.40;99.90;;;;;;5033733;28;20036;-73
2021/10/26 01:47:17;;;;;;;11.87;7.70;;;3.40;99.90;;;;;;5034125;28;20383;-73
2021/10/26 01:49:43;;;;;;;9.97;7.30;;;3.40;99.90;;;;;;5034011;28;20187;-73
2021/10/26 01:52:10;;;;;;;12.23;8.37;;;3.40;99.90;;;;;;5033930;28;20033;-73
2021/10/26 01:54:37;;;;;;;15.10;7.67;;;3.40;99.90;;;;;;5033898;28;20029;-73
2021/10/26 01:57:06;;;;;;;9.50;7.27;;;3.40;99.90;;;;;;5032232;28;20025;-74
2021/10/26 01:59:33;;;;;;;11.23;7.50;;;3.30;99.90;;;;;;5033694;28;20402;-73
2021/10/26 02:01:59;;;;;;;10.53;7.27;;;3.30;99.90;;;;;;5033405;28;20041;-74
2021/10/26 02:04:25;;;;;;;10.90;6.70;;;3.30;99.90;;;;;;5033652;28;20724;-73
2021/10/26 02:06:51;;;;;;;10.03;6.50;;;3.30;99.90;;;;;;5033585;28;20017;-73
2021/10/26 02:09:17;;;;;;;9.20;6.10;;;3.20;99.90;;;;;;5015803;28;20032;-73
2021/10/26 02:11:43;;;;;;;9.97;6.97;;;3.20;99.90;;;;;;5033228;28;20516;-73
2021/10/26 02:14:08;;;;;;;9.77;7.00;;;3.20;99.90;;;;;;5033300;28;20025;-74
2021/10/26 02:16:34;;;;;;;11.77;7.23;;;3.10;99.90;;;;;;5033235;28;20371;-73
2021/10/26 02:19:00;;;;;;;9.90;6.20;;;3.10;99.90;;;;;;5015600;28;20037;-74
2021/10/26 02:21:25;;;;;;;8.23;6.33;;;3.10;99.90;;;;;;5033003;28;20670;-73
2021/10/26 02:23:51;;;;;;;11.20;7.00;;;3.00;99.90;;;;;;5033198;28;20064;-73
2021/10/26 02:26:16;;;;;;;13.07;6.63;;;3.00;99.90;;;;;;5033308;28;20030;-73
2021/10/26 02:28:43;;;;;;;10.23;7.03;;;3.00;99.90;;;;;;5032977;28;20036;-73
2021/10/26 02:31:09;;;;;;;10.77;6.60;;;3.00;99.90;;;;;;5032906;28;20026;-73
2021/10/26 02:33:35;;;;;;;11.10;6.53;;;2.90;99.90;;;;;;5033013;28;20037;-73
2021/10/26 02:36:01;;;;;;;10.63;6.90;;;2.90;99.90;;;;;;5032996;28;20034;-74
2021/10/26 02:38:26;;;;;;;10.97;6.47;;;2.90;99.90;;;;;;5033185;28;20036;-73
2021/10/26 02:40:52;;;;;;;8.83;6.83;;;2.90;99.90;;;;;;5032759;28;20054;-73
2021/10/26 02:43:18;;;;;;;8.43;5.73;;;2.80;99.90;;;;;;5032722;28;20061;-73
2021/10/26 02:45:44;;;;;;;10.33;6.27;;;2.80;99.90;;;;;;5031648;28;20451;-73
2021/10/26 02:48:09;;;;;;;12.73;6.83;;;2.80;99.90;;;;;;5032923;28;20083;-73
2021/10/26 02:50:35;;;;;;;11.83;6.17;;;2.70;99.90;;;;;;5032639;28;20029;-74
2021/10/26 02:53:01;;;;;;;10.93;6.27;;;2.70;99.90;;;;;;5014898;28;20045;-73
2021/10/26 02:55:26;;;;;;;11.23;6.63;;;2.70;99.90;;;;;;5032514;28;20032;-73
2021/10/26 02:57:52;;;;;;;10.33;6.00;;;2.70;99.90;;;;;;5032346;28;20417;-73
2021/10/26 03:00:17;;;;;;;9.47;6.20;;;2.70;99.90;;;;;;5032235;28;20072;-73
2021/10/26 03:02:43;;;;;;;10.40;6.37;;;2.60;99.90;;;;;;5032194;28;20032;-73
2021/10/26 03:05:09;;;;;;;9.53;6.13;;;2.60;99.90;;;;;;5014966;28;20060;-73
2021/10/26 03:07:42;;;;;;;10.50;5.97;;;2.60;99.90;;;;;;5032054;28;20025;-73
2021/10/26 03:10:09;;;;;;;8.10;5.67;;;2.50;99.90;;;;;;5032426;28;20387;-73
2021/10/26 03:12:35;;;;;;;8.67;5.63;;;2.50;99.90;;;;;;5032083;28;20034;-74
2021/10/26 03:15:02;;;;;;;10.73;6.20;;;2.50;99.90;;;;;;5032325;28;20025;-74
2021/10/26 03:17:27;;;;;;;7.77;6.10;;;2.50;99.90;;;;;;5032043;28;20118;-74
2021/10/26 03:19:53;;;;;;;10.50;5.77;;;2.50;99.90;;;;;;5032158;28;20080;-74
2021/10/26 03:22:19;;;;;;;10.97;6.00;;;2.50;99.90;;;;;;5032006;28;20044;-74
2021/10/26 03:24:44;;;;;;;9.43;5.93;;;2.50;99.90;;;;;;5031919;28;20418;-73
2021/10/26 03:27:10;;;;;;;11.07;5.87;;;2.50;99.90;;;;;;5032072;28;20025;-73
2021/10/26 03:29:36;;;;;;;10.73;5.50;;;2.50;99.90;;;;;;5031697;28;20083;-74
2021/10/26 03:32:03;;;;;;;9.87;5.90;;;2.50;99.90;;;;;;5031934;28;20060;-74
2021/10/26 03:34:29;;;;;;;8.03;5.80;;;2.50;99.90;;;;;;5031958;28;20033;-73
2021/10/26 03:36:55;;;;;;;10.50;5.77;;;2.50;99.90;;;;;;5031792;28;20026;-73
2021/10/26 03:39:21;;;;;;;8.23;5.93;;;2.50;99.90;;;;;;5013986;28;20446;-73
2021/10/26 03:41:46;;;;;;;8.17;5.07;;;2.50;99.90;;;;;;5031252;28;20088;-73
2021/10/26 03:44:12;;;;;;;13.53;5.40;;;2.40;99.90;;;;;;5031723;28;20038;-73
2021/10/26 03:46:37;;;;;;;8.60;5.30;;;2.50;99.90;;;;;;5031839;28;20047;-73
2021/10/26 03:49:04;;;;;;;9.57;5.63;;;2.40;99.90;;;;;;5031897;28;20867;-73
2021/10/26 03:51:33;;;;;;;9.30;5.97;;;2.50;99.90;;;;;;5031633;28;20064;-73
2021/10/26 03:53:59;;;;;;;8.70;5.40;;;2.50;99.90;;;;;;5031667;28;20025;-73
2021/10/26 03:56:25;;;;;;;10.37;5.97;;;2.50;99.90;;;;;;5031752;28;20026;-73
2021/10/26 03:58:51;;;;;;;9.30;6.30;;;2.50;99.90;;;;;;5031047;28;20021;-73
2021/10/26 04:01:16;;;;;;;9.87;6.63;;;2.50;99.90;;;;;;5031619;28;20088;-73
2021/10/26 04:03:42;;;;;;;8.40;5.77;;;2.50;99.90;;;;;;5031240;28;20041;-73
2021/10/26 04:06:13;;;;;;;11.17;6.50;;;2.50;99.90;;;;;;5031308;28;20022;-73
2021/10/26 04:11:24;;;;;;;10.53;6.13;;;2.50;99.90;;;;;;5031347;28;20041;-73
2021/10/26 04:13:51;;;;;;;9.40;6.10;;;2.50;99.90;;;;;;5028860;28;20032;-73
2021/10/26 04:16:17;;;;;;;9.67;5.90;;;2.50;99.90;;;;;;5034722;28;20037;-72
2021/10/26 04:18:43;;;;;;;8.00;5.23;;;2.50;99.90;;;;;;5049303;28;20025;-72
2021/10/26 04:21:10;;;;;;;9.70;5.70;;;2.50;99.90;;;;;;5039142;28;20051;-72
2021/10/26 04:23:35;;;;;;;9.23;6.10;;;2.60;99.90;;;;;;5033716;28;20030;-72
2021/10/26 04:26:03;;;;;;;8.70;5.40;;;2.60;99.90;;;;;;5033955;28;20348;-72
2021/10/26 04:28:28;;;;;;;8.00;5.60;;;2.60;99.90;;;;;;5019761;28;20092;-72
2021/10/26 04:30:54;;;;;;;9.37;6.27;;;2.60;99.90;;;;;;5033803;28;20466;-72
2021/10/26 04:33:20;;;;;;;9.10;6.20;;;2.60;99.90;;;;;;5036829;28;20052;-72
2021/10/26 04:35:46;;;;;;;11.07;6.17;;;2.60;99.90;;;;;;5015711;28;20037;-72
2021/10/26 04:38:12;;;;;;;11.63;6.53;;;2.60;99.90;;;;;;5035583;28;20109;-72
2021/10/26 04:40:38;;;;;;;14.17;6.50;;;2.60;99.90;;;;;;5043579;28;20359;-72
2021/10/26 04:43:04;;;;;;;9.73;6.83;;;2.60;99.90;;;;;;5033250;28;20119;-72
2021/10/26 04:45:30;;;;;;;10.77;6.40;;;2.60;99.90;;;;;;5028166;28;20044;-72
2021/10/26 04:47:56;;;;;;;10.40;5.60;;;2.60;99.90;;;;;;5046112;28;20017;-72
2021/10/26 04:50:22;;;;;;;13.50;6.67;;;2.60;99.90;;;;;;5035876;28;20535;-72
2021/10/26 04:52:48;;;;;;;10.57;5.93;;;2.60;99.90;;;;;;5037655;28;20052;-72
2021/10/26 04:55:14;;;;;;;8.40;5.90;;;2.50;99.90;;;;;;5042040;28;20034;-72
2021/10/26 04:57:41;;;;;;;10.47;6.07;;;2.50;99.90;;;;;;5041782;28;20088;-72
2021/10/26 05:00:08;;;;;;;9.30;5.97;;;2.50;99.90;;;;;;5033003;28;20032;-72
2021/10/26 05:02:34;;;;;;;8.13;5.70;;;2.40;99.90;;;;;;5051006;28;20442;-72
2021/10/26 05:05:00;;;;;;;9.03;5.33;;;2.40;99.90;;;;;;5041241;28;20105;-72
2021/10/26 05:07:25;;;;;;;8.47;5.53;;;2.40;99.90;;;;;;5032760;28;20021;-72
2021/10/26 05:09:51;;;;;;;7.13;5.20;;;2.30;99.90;;;;;;5032149;28;20450;-72
2021/10/26 05:12:17;;;;;;;8.43;4.93;;;2.30;99.90;;;;;;5032578;28;20155;-72
2021/10/26 05:14:42;;;;;;;14.00;6.10;;;2.30;99.90;;;;;;5032896;28;20087;-72
2021/10/26 05:17:10;;;;;;;8.90;5.97;;;2.30;99.90;;;;;;5032749;28;20025;-72
2021/10/26 05:19:37;;;;;;;14.33;6.43;;;2.30;99.90;;;;;;5032560;28;20024;-72
2021/10/26 05:22:03;;;;;;;15.23;6.23;;;2.20;99.90;;;;;;5032553;28;20427;-72
2021/10/26 05:24:32;;;;;;;9.77;6.20;;;2.20;99.90;;;;;;5032412;28;20018;-72
2021/10/26 05:26:57;;;;;;;10.23;6.60;;;2.20;99.90;;;;;;5019318;28;20017;-72
2021/10/26 05:29:23;;;;;;;11.57;6.50;;;2.20;99.90;;;;;;5032099;28;20105;-72
2021/10/26 05:31:49;;;;;;;12.30;6.80;;;2.20;99.90;;;;;;5032204;28;20443;-72
2021/10/26 05:34:15;;;;;;;9.60;6.27;;;2.20;99.90;;;;;;5032760;28;20029;-72
2021/10/26 05:36:44;;;;;;;11.33;6.73;;;2.20;99.90;;;;;;5013445;28;20052;-73
2021/10/26 05:39:10;;;;;;;16.37;7.63;;;2.20;99.90;;;;;;5001873;28;20109;-73
2021/10/26 05:41:37;;;;;;;12.63;7.23;;;2.20;99.90;;;;;;5030804;28;20046;-72
2021/10/26 05:44:03;;;;;;;17.83;9.27;;;2.20;99.90;;;;;;5032313;28;20026;-72
2021/10/26 05:46:29;;;;;;;20.27;9.13;;;2.20;99.90;;;;;;5031916;28;20026;-71
2021/10/26 05:48:55;;;;;;;14.97;7.60;;;2.20;99.90;;;;;;5031981;28;20018;-72
2021/10/26 05:51:21;;;;;;;11.47;7.27;;;2.20;99.90;;;;;;5032219;28;20086;-71
2021/10/26 05:53:46;;;;;;;18.97;8.37;;;2.10;99.90;;;;;;5032039;28;20025;-71
2021/10/26 05:56:12;;;;;;;11.77;7.73;;;2.20;99.90;;;;;;5031728;28;20025;-71
2021/10/26 05:58:38;;;;;;;13.53;7.60;;;2.20;99.90;;;;;;5031865;28;20018;-72
2021/10/26 06:01:03;;;;;;;12.50;7.63;;;2.20;99.90;;;;;;5031770;28;20104;-72
2021/10/26 06:03:30;;;;;;;13.90;7.17;;;2.20;99.90;;;;;;5031926;28;20115;-71
2021/10/26 06:05:56;;;;;;;11.33;7.10;;;2.20;99.90;;;;;;5031738;28;20045;-72
2021/10/26 06:08:21;;;;;;;18.23;7.83;;;2.30;99.90;;;;;;5026828;28;20065;-73
2021/10/26 06:10:53;;;;;;;18.43;8.03;;;2.40;99.90;;;;;;5026658;28;20029;-73
2021/10/26 06:13:25;;;;;;;15.97;7.97;;;2.50;99.90;;;;;;5015834;28;20033;-73
2021/10/26 06:15:51;;;;;;;16.70;8.50;;;2.50;99.90;;;;;;5030323;28;20790;-72
2021/10/26 06:18:17;;;;;;;21.57;8.70;;;2.60;99.90;;;;;;5035512;28;20048;-73
2021/10/26 06:20:43;;;;;;;11.57;6.10;;;2.70;99.90;;;;;;5024803;28;20036;-73
2021/10/26 06:23:08;;;;;;;12.93;6.97;;;2.70;99.90;;;;;;5011553;28;20029;-73
2021/10/26 06:25:34;;;;;;;19.83;7.60;;;2.80;99.90;;;;;;5024018;28;20030;-73
2021/10/26 06:28:00;;;;;;;15.60;7.60;;;2.80;99.90;;;;;;5031985;28;20026;-73
2021/10/26 06:30:26;;;;;;;10.37;6.40;;;2.80;99.90;;;;;;5032256;28;20036;-71
2021/10/26 06:32:51;;;;;;;12.57;6.20;;;2.80;99.90;;;;;;5033453;28;20037;-71
2021/10/26 06:35:17;;;;;;;10.47;6.27;;;2.80;99.90;;;;;;5016830;28;20394;-72
2021/10/26 06:37:43;;;;;;;12.60;6.60;;;2.80;99.90;;;;;;5034772;28;20025;-72
2021/10/26 06:40:11;;;;;;;10.50;6.90;;;2.80;99.90;;;;;;5029781;28;20025;-72
2021/10/26 06:42:37;;;;;;;14.37;7.30;;;2.80;99.90;;;;;;5038951;28;20390;-72
2021/10/26 06:45:03;;;;;;;24.37;8.73;;;2.90;99.90;;;;;;5037959;28;20204;-72
2021/10/26 06:47:29;;;;;;;14.83;7.43;;;2.90;99.90;;;;;;5036223;28;20384;-72
2021/10/26 06:49:55;;;;;;;22.70;7.30;;;3.00;99.90;;;;;;5036884;28;20029;-73
2021/10/26 06:52:21;;;;;;;17.93;7.20;;;3.00;99.90;;;;;;5017040;28;20065;-72
2021/10/26 06:54:46;;;;;;;15.73;7.00;;;3.00;99.90;;;;;;5035177;28;20021;-72
2021/10/26 06:57:12;;;;;;;20.57;8.37;;;3.10;99.90;;;;;;5035305;28;20030;-72
2021/10/26 06:59:38;;;;;;;24.63;8.43;;;3.10;99.90;;;;;;5034329;28;20036;-73
2021/10/26 07:02:03;;;;;;;30.37;10.20;;;3.20;99.90;;;;;;5027056;28;20038;-74
2021/10/26 07:04:35;;;;;;;38.47;15.73;;;3.30;99.90;;;;;;5013196;28;20033;-74
2021/10/26 07:07:01;;;;;;;21.17;10.73;;;3.40;99.90;;;;;;5031271;28;20019;-74
2021/10/26 07:09:27;;;;;;;22.70;8.97;;;3.50;99.90;;;;;;5035519;28;20021;-74
2021/10/26 07:11:52;;;;;;;20.63;8.70;;;3.70;99.90;;;;;;5028576;28;20408;-74
2021/10/26 07:14:18;;;;;;;20.40;9.60;;;3.80;99.90;;;;;;5031989;28;20021;-74
2021/10/26 07:16:44;;;;;;;14.50;8.57;;;4.00;99.90;;;;;;5025809;28;20026;-72
2021/10/26 07:19:11;;;;;;;16.37;8.90;;;4.20;99.90;;;;;;5029559;28;20026;-72
2021/10/26 07:21:37;;;;;;;16.63;10.47;;;4.30;99.90;;;;;;5013133;28;20025;-72
2021/10/26 07:24:04;;;;;;;24.90;11.67;;;4.50;99.90;;;;;;5030335;28;20021;-72
2021/10/26 07:26:29;;;;;;;24.07;11.30;;;4.70;99.90;;;;;;5016479;28;20378;-71
2021/10/26 07:28:56;;;;;;;23.57;12.10;;;4.90;99.90;;;;;;5034061;28;20028;-72
2021/10/26 07:31:24;;;;;;;23.07;12.17;;;5.20;99.90;;;;;;5034261;28;20105;-73
2021/10/26 07:33:51;;;;;;;18.97;11.67;;;5.40;99.90;;;;;;5034053;28;20022;-72
2021/10/26 07:36:17;;;;;;;22.03;10.30;;;5.60;99.90;;;;;;5034056;28;20070;-72
2021/10/26 07:38:43;;;;;;;15.87;9.53;;;5.90;99.90;;;;;;5033140;28;20017;-73
2021/10/26 07:41:10;;;;;;;17.67;9.53;;;6.10;99.90;;;;;;5033294;28;20119;-73
2021/10/26 07:43:37;;;;;;;18.23;9.80;;;6.40;99.90;;;;;;5030108;28;20184;-73
2021/10/26 07:46:04;;;;;;;15.67;9.17;;;6.60;99.90;;;;;;5034573;28;20048;-73
2021/10/26 07:48:30;;;;;;;18.30;9.67;;;6.80;99.90;;;;;;5034578;28;20035;-72
2021/10/26 07:51:00;;;;;;;18.13;9.33;;;7.00;99.90;;;;;;5035261;28;20030;-73
2021/10/26 07:53:27;;;;;;;16.77;8.90;;;7.20;99.90;;;;;;5027830;28;20017;-73
2021/10/26 07:55:53;;;;;;;17.17;9.13;;;7.30;99.90;;;;;;5034102;28;20025;-73
2021/10/26 07:58:20;;;;;;;17.53;9.83;;;7.50;99.90;;;;;;5034160;28;20034;-73
2021/10/26 08:00:46;;;;;;;15.83;9.37;;;7.50;99.90;;;;;;5036330;28;20368;-73
2021/10/26 08:03:12;;;;;;;19.13;10.03;;;7.60;99.90;;;;;;5039946;28;20034;-75
2021/10/26 08:05:38;;;;;;;18.97;9.97;;;7.70;99.90;;;;;;5032286;28;20022;-72
2021/10/26 08:08:03;;;;;;;17.23;9.63;;;7.70;99.90;;;;;;5033409;28;20103;-72
2021/10/26 08:10:30;;;;;;;19.73;9.70;;;7.80;99.90;;;;;;5029927;28;20104;-75
2021/10/26 08:12:57;;;;;;;16.13;9.17;;;7.80;99.90;;;;;;5033102;28;20044;-73
2021/10/26 08:15:23;;;;;;;19.03;9.57;;;7.90;99.90;;;;;;5035437;28;20025;-73
2021/10/26 08:17:50;;;;;;;16.20;9.70;;;7.90;99.90;;;;;;5025164;28;20087;-73
2021/10/26 08:20:18;;;;;;;18.77;9.83;;;7.90;99.90;;;;;;5019192;28;20022;-73
2021/10/26 08:22:45;;;;;;;15.43;9.37;;;8.00;99.90;;;;;;5033258;28;20036;-72
2021/10/26 08:25:36;;;;;;;15.83;9.70;;;8.00;99.90;;;;;;5022934;28;20021;-75
2021/10/26 08:27:59;;;;;;;20.93;10.00;;;8.10;99.90;;;;;;5030963;28;20124;-74
2021/10/26 08:30:38;;;;;;;16.13;9.97;;;8.10;99.90;;;;;;5031945;28;20033;-73
2021/10/26 08:35:30;;;;;;;15.63;9.60;;;8.30;99.90;;;;;;5033065;28;20117;-73
2021/10/26 08:38:03;;;;;;;16.40;9.77;;;8.40;99.90;;;;;;5034797;28;20045;-73
2021/10/26 08:40:30;;;;;;;15.37;8.93;;;8.50;99.90;;;;;;5013729;28;20033;-73
2021/10/26 08:43:08;;;;;;;18.77;9.27;;;8.70;99.90;;;;;;5026771;28;20791;-74
2021/10/26 08:45:40;;;;;;;17.53;9.10;;;8.80;99.90;;;;;;5027447;28;20092;-73
2021/10/26 08:48:11;;;;;;;17.13;8.80;;;8.90;99.90;;;;;;5027875;28;20071;-73
2021/10/26 08:50:37;;;;;;;16.00;8.40;;;9.00;99.90;;;;;;5028946;22;20640;-74
2021/10/26 08:53:04;;;;;;;15.40;9.00;;;9.20;99.90;;;;;;5030133;28;20500;-74
2021/10/26 08:55:35;;;;;;;13.37;8.70;;;9.30;99.90;;;;;;5028614;28;20025;-73
2021/10/26 08:58:04;;;;;;;13.40;8.13;;;9.30;99.90;;;;;;5027863;28;20097;-74
2021/10/26 09:00:30;;;;;;;14.87;8.80;;;9.40;99.90;;;;;;5026966;28;20033;-75
2021/10/26 09:02:56;;;;;;;13.63;8.47;;;9.50;99.90;;;;;;5027917;28;20026;-74
2021/10/26 09:05:24;;;;;;;13.50;8.27;;;9.60;99.90;;;;;;5032059;28;20077;-74
2021/10/26 09:08:06;;;;;;;18.60;8.80;;;9.60;99.90;;;;;;5031632;28;20044;-74
2021/10/26 09:10:34;;;;;;;13.40;8.40;;;9.70;99.90;;;;;;5032067;28;20021;-74
2021/10/26 09:18:46;;;;;;;13.83;7.90;;;9.90;99.90;;;;;;5022559;28;20393;-74
2021/10/26 09:21:23;;;;;;;14.10;7.90;;;9.90;99.90;;;;;;5030073;28;20021;-74
2021/10/26 09:23:49;;;;;;;13.73;8.20;;;9.90;99.90;;;;;;5032354;28;20053;-74
2021/10/26 09:26:15;;;;;;;12.47;8.37;;;10.00;99.90;;;;;;5031017;28;20060;-74
2021/10/26 09:28:50;;;;;;;12.13;7.63;;;10.00;99.90;;;;;;5031194;28;20025;-74
2021/10/26 09:31:22;;;;;;;14.38;8.77;;;10.00;99.90;;;;;;5030147;28;20021;-74
2021/10/26 09:34:01;;;;;;;14.33;7.87;;;10.00;99.90;;;;;;5030258;28;20038;-74
2021/10/26 09:36:28;;;;;;;12.73;8.27;;;10.10;99.90;;;;;;5031385;28;20025;-74
2021/10/26 09:39:03;;;;;;;13.67;8.17;;;10.10;99.90;;;;;;5031170;28;20030;-74
2021/10/26 09:41:32;;;;;;;11.93;8.48;;;10.10;99.90;;;;;;5031390;28;20030;-74
2021/10/26 09:44:19;;;;;;;12.33;8.40;;;10.20;99.90;;;;;;5031438;28;20091;-74
2021/10/26 09:46:53;;;;;;;15.10;8.17;;;10.20;99.90;;;;;;5028777;28;20026;-74
2021/10/26 09:49:21;;;;;;;13.50;8.70;;;10.30;99.90;;;;;;5030914;28;20029;-74
2021/10/26 09:51:49;;;;;;;13.00;8.90;;;10.40;99.90;;;;;;5030934;28;20037;-74
2021/10/26 09:54:21;;;;;;;13.57;8.93;;;10.50;99.90;;;;;;5029493;28;20033;-74
2021/10/26 09:57:13;;;;;;;16.63;8.97;;;10.50;99.90;;;;;;5031325;28;20497;-74
2021/10/26 09:59:53;;;;;;;14.53;8.73;;;10.60;99.90;;;;;;5033333;28;20029;-74
2021/10/26 10:02:23;;;;;;;15.43;8.63;;;10.60;99.90;;;;;;5033438;28;20025;-76
2021/10/26 10:04:53;;;;;;;13.30;9.13;;;10.70;99.90;;;;;;5033135;28;20017;-76
2021/10/26 10:07:30;;;;;;;16.65;8.73;;;10.80;99.90;;;;;;5035110;28;20026;-76
2021/10/26 10:10:17;;;;;;;13.05;8.70;;;10.90;99.90;;;;;;5021918;28;20056;-76
2021/10/26 10:12:45;;;;;;;15.63;9.73;;;11.00;99.90;;;;;;5035297;28;20409;-76
2021/10/26 10:15:12;;;;;;;13.27;9.07;;;11.00;99.90;;;;;;5035579;28;20021;-76
2021/10/26 10:17:37;;;;;;;14.05;9.10;;;11.20;99.90;;;;;;5035652;28;20354;-75
2021/10/26 10:20:11;;;;;;;14.45;8.45;;;11.30;99.90;;;;;;5035483;28;20026;-75
2021/10/26 10:22:41;;;;;;;13.90;8.75;;;11.40;99.90;;;;;;5035284;28;20053;-75
2021/10/26 10:25:09;;;;;;;15.18;8.65;;;11.50;99.90;;;;;;5035171;28;20045;-75
2021/10/26 10:27:36;;;;;;;15.20;8.73;;;11.60;99.90;;;;;;5035363;28;20483;-75
2021/10/26 10:30:05;;;;;;;13.68;9.30;;;11.70;99.90;;;;;;5032061;28;20033;-75
2021/10/26 10:32:30;;;;;;;12.93;8.38;;;11.70;99.90;;;;;;5032532;28;20180;-75
2021/10/26 10:34:59;;;;;;;13.02;8.40;;;11.70;99.90;;;;;;5032451;28;20104;-75
2021/10/26 10:37:29;;;;;;;14.82;8.63;;;11.70;99.90;;;;;;5032314;28;20426;-75
2021/10/26 10:39:59;;;;;;;13.77;8.82;;;11.80;99.90;;;;;;5033586;28;20037;-75
2021/10/26 10:42:26;;;;;;;13.70;8.43;;;11.80;99.90;;;;;;5033453;28;20025;-75
2021/10/26 10:44:57;;;;;;;16.38;9.90;;;11.90;99.90;;;;;;5028161;28;20050;-77
2021/10/26 10:47:39;;;;;;;12.73;8.75;;;11.90;99.90;;;;;;5027795;28;20527;-76
2021/10/26 10:50:23;;;;;;;14.15;9.07;;;12.10;99.90;;;;;;5034382;28;20048;-75
2021/10/26 10:53:15;;;;;;;15.40;9.75;;;12.30;99.90;;;;;;5026597;28;20488;-75
2021/10/26 10:55:52;;;;;;;13.27;8.27;;;12.50;99.90;;;;;;5033697;28;20599;-75
2021/10/26 10:58:41;;;;;;;11.40;8.20;;;12.50;99.90;;;;;;5030242;28;20034;-75
2021/10/26 11:01:20;;;;;;;12.48;8.60;;;12.50;99.90;;;;;;5018549;28;20036;-75
2021/10/26 11:03:47;;;;;;;12.80;8.50;;;12.50;99.90;;;;;;5028387;28;20017;-74
2021/10/26 11:06:58;;;;;;;12.30;8.55;;;12.40;99.90;;;;;;5028466;28;20778;-75
2021/10/26 11:09:37;;;;;;;13.90;8.55;;;12.40;99.90;;;;;;5028160;28;20033;-75
2021/10/26 11:12:12;;;;;;;13.02;9.10;;;12.40;99.90;;;;;;5026706;28;20096;-75
2021/10/26 11:14:53;;;;;;;;;;;12.40;99.90;;;;;;5020167;28;20533;-75
2021/10/26 11:17:43;;;;;;;11.90;8.18;;;12.40;99.90;;;;;;5020353;28;19913;-75
2021/10/26 11:20:31;;;;;;;11.77;8.10;;;12.40;99.90;;;;;;5008623;28;20172;-75
2021/10/26 11:23:02;;;;;;;17.25;8.60;;;12.40;99.90;;;;;;5019543;28;20029;-75
2021/10/26 11:25:27;;;;;;;12.40;7.90;;;12.40;99.90;;;;;;5027193;28;20225;-75
2021/10/26 11:27:57;;;;;;;12.80;7.78;;;12.50;99.90;;;;;;5028246;28;20040;-75
2021/10/26 11:30:28;;;;;;;14.05;8.10;;;12.60;99.90;;;;;;5028817;28;20032;-74
2021/10/26 11:33:10;;;;;;;21.33;8.50;;;12.70;99.90;;;;;;5026983;28;20030;-74
2021/10/26 11:35:55;;;;;;;13.35;7.95;;;12.70;99.90;;;;;;5027849;28;20116;-74
2021/10/26 11:38:23;;;;;;;12.23;7.28;;;12.80;99.90;;;;;;5030454;28;20427;-74
2021/10/26 11:40:59;;;;;;;11.10;7.13;;;12.90;99.90;;;;;;5031716;28;20035;-74
2021/10/26 11:43:26;;;;;;;13.90;7.68;;;13.10;99.90;;;;;;5029822;28;20115;-74
2021/10/26 11:45:56;;;;;;;10.00;6.93;;;13.00;99.90;;;;;;5033296;28;20073;-73
2021/10/26 11:48:42;;;;;;;12.73;6.80;;;13.10;99.90;;;;;;5030927;28;20063;-75
2021/10/26 11:51:21;;;;;;;9.77;6.82;;;13.20;99.90;;;;;;5028761;28;20219;-74
2021/10/26 11:53:47;;;;;;;11.90;6.85;;;13.20;99.90;;;;;;5030751;28;20025;-74
2021/10/26 11:56:28;;;;;;;12.02;6.88;;;13.30;99.90;;;;;;5030420;28;20057;-74
2021/10/26 11:59:11;;;;;;;10.80;6.32;;;13.50;99.90;;;;;;5025904;28;20355;-74
2021/10/26 12:01:42;;;;;;;12.60;7.45;;;13.50;99.90;;;;;;5030250;28;20051;-74
2021/10/26 12:04:31;;;;;;;14.27;7.45;;;13.50;99.90;;;;;;5033384;28;20025;-74
2021/10/26 12:07:08;;;;;;;14.50;8.00;;;13.60;99.90;;;;;;5030577;28;20033;-74
2021/10/26 12:09:39;;;;;;;11.10;6.53;;;13.70;99.90;;;;;;5033771;28;20473;-74
2021/10/26 12:12:10;;;;;;;15.20;10.18;;;13.80;99.90;;;;;;5034036;28;20087;-74
2021/10/26 12:14:39;;;;;;;13.70;6.78;;;14.00;99.90;;;;;;5032408;28;20030;-74
2021/10/26 12:17:10;;;;;;;10.13;6.03;;;14.10;99.90;;;;;;5033663;28;20025;-74
2021/10/26 12:19:39;;;;;;;11.10;6.82;;;14.00;99.90;;;;;;5033752;28;20367;-74
2021/10/26 12:22:06;;;;;;;12.00;6.85;;;13.90;99.90;;;;;;5033428;28;20033;-74
2021/10/26 12:24:33;;;;;;;16.30;6.50;;;13.90;99.90;;;;;;5032490;28;20101;-73
2021/10/26 12:27:07;;;;;;;14.32;6.45;;;13.80;99.90;;;;;;5033689;28;20041;-73
2021/10/26 12:29:35;;;;;;;7.18;5.32;;;13.80;99.90;;;;;;5033703;28;20092;-74
2021/10/26 12:32:06;;;;;;;8.52;5.00;;;13.70;99.90;;;;;;5014267;28;20497;-75
2021/10/26 12:34:44;;;;;;;10.38;5.28;;;13.60;99.90;;;;;;5027753;28;20100;-75
2021/10/26 12:37:21;;;;;;;9.25;5.65;;;13.70;99.90;;;;;;5028121;28;20064;-75
2021/10/26 12:39:52;;;;;;;8.10;5.55;;;13.60;99.90;;;;;;5026575;28;20032;-75
2021/10/26 12:42:35;;;;;;;10.48;5.30;;;13.60;99.90;;;;;;5025302;28;20033;-75
2021/10/26 12:45:03;;;;;;;7.60;5.15;;;13.60;99.90;;;;;;5027244;28;20037;-75
2021/10/26 12:47:33;;;;;;;8.13;5.32;;;13.90;99.90;;;;;;5019500;28;20022;-75
2021/10/26 12:49:59;;;;;;;6.95;4.60;;;14.00;99.90;;;;;;5019557;28;20106;-75
2021/10/26 12:52:25;;;;;;;7.35;4.60;;;14.20;99.90;;;;;;5020326;28;20120;-75
2021/10/26 12:54:51;;;;;;;11.10;4.10;;;14.20;99.90;;;;;;5020086;28;20100;-75
2021/10/26 12:57:35;;;;;;;8.40;3.58;;;13.90;99.90;;;;;;5013013;28;20029;-75
2021/10/26 13:00:20;;;;;;;9.82;4.15;;;13.70;99.90;;;;;;5026604;28;20026;-75
2021/10/26 13:02:46;;;;;;;7.40;4.53;;;13.40;99.90;;;;;;5015673;28;20089;-75
2021/10/26 13:05:12;;;;;;;6.72;3.30;;;13.20;99.90;;;;;;5021212;28;20021;-73